OK1VCF-5 Weather Reports


time (UTC)temp
F
wind
direction
speed
knots
gust
knots
rain 1hr
in
rain 24hr
in
rain mn
in
humidity
%
barometer
mb
20260902061758 60 0 0.0 0.0 0.00 0.00 0.00 81 1026.4
20260902060256 56 0 0.0 0.0 0.00 0.00 0.00 86 1026.2
20260902054755 56 0 0.0 0.0 0.00 0.00 0.00 86 1026.2
20260902053512 55 0 0.0 0.0 0.00 0.00 0.00 86 1026.4
20260902053254 55 0 0.0 0.0 0.00 0.00 0.00 86 1026.4
20260902052115 52 0 0.0 0.0 0.00 0.00 0.00 90 1026.4
20260902051753 52 0 0.0 0.0 0.00 0.00 0.00 90 1026.4
20260902050252 51 0 0.0 0.0 0.00 0.00 0.00 92 1026.0
20260902044753 52 0 0.0 0.0 0.00 0.00 0.00 92 1026.0
20260902043253 52 0 0.0 0.0 0.00 0.00 0.00 92 1025.8
20260902041752 51 0 0.0 0.0 0.00 0.00 0.00 92 1025.7
20260902040249 50 0 0.0 0.0 0.00 0.00 0.00 92 1025.8
20260902034749 51 0 0.0 0.0 0.00 0.00 0.00 92 1026.0
20260902033322 51 0 0.0 0.0 0.00 0.00 0.00 92 1026.0
20260902033248 51 0 0.0 0.0 0.00 0.00 0.00 92 1026.0
20260902031749 51 0 0.0 0.0 0.00 0.00 0.00 92 1025.8
20260902030246 50 0 0.0 0.0 0.00 0.00 0.00 92 1026.0
20260902024745 50 0 0.0 0.0 0.00 0.00 0.00 92 1026.0
20260902023616 50 0 0.0 0.0 0.00 0.00 0.00 92 1026.2
20260902023245 50 0 0.0 0.0 0.00 0.00 0.00 92 1026.2
20260902021748 51 0 0.0 0.0 0.00 0.00 0.00 92 1026.0
20260902020243 51 0 0.0 0.0 0.00 0.00 0.00 92 1026.0
20260902013319 51 0 0.0 0.0 0.00 0.00 0.00 92 1025.8
20260902013242 51 0 0.0 0.0 0.00 0.00 0.00 92 1025.8
20260902011741 52 0 0.0 0.0 0.00 0.00 0.00 91 1025.8
20260902004739 52 0 0.0 0.0 0.00 0.00 0.00 90 1025.8
20260902003238 52 0 0.0 0.0 0.00 0.00 0.00 90 1025.7
20260902001738 52 0 0.0 0.0 0.00 0.00 0.00 90 1025.9
20260901234736 52 0 0.0 0.0 0.00 0.00 0.00 90 1026.0
20260901233422 52 0 0.0 0.0 0.00 0.00 0.00 90 1025.8
20260901233235 52 0 0.0 0.0 0.00 0.00 0.00 90 1025.8
20260901231734 52 0 0.0 0.0 0.00 0.00 0.00 90 1026.0
20260901230235 52 0 0.0 0.0 0.00 0.00 0.00 90 1025.9
20260901224733 53 0 0.0 0.0 0.00 0.00 0.00 89 1026.0
20260901223232 53 0 0.0 0.0 0.00 0.00 0.00 88 1026.0
20260901221822 54 0 0.0 0.0 0.00 0.00 0.00 88 1026.1
20260901221739 54 0 0.0 0.0 0.00 0.00 0.00 88 1026.1
20260901221731 54 0 0.0 0.0 0.00 0.00 0.00 88 1026.1
20260901220231 54 0 0.0 0.0 0.00 0.00 0.00 88 1026.0
20260901214730 54 0 0.0 0.0 0.00 0.00 0.00 87 1026.0
20260901213229 54 0 0.0 0.0 0.00 0.00 0.00 86 1025.9
20260901211729 55 0 0.0 0.0 0.00 0.00 0.00 86 1025.8
20260901210227 55 0 0.0 0.0 0.00 0.00 0.00 85 1025.7
20260901203226 56 0 0.0 0.0 0.00 0.00 0.00 83 1025.4
20260901201725 57 0 0.0 0.0 0.00 0.00 0.00 80 1025.4
20260901200224 58 0 0.0 0.0 0.00 0.00 0.00 77 1025.4
20260901194732 58 0 0.0 0.0 0.00 0.00 0.00 77 1025.2
20260901194724 58 0 0.0 0.0 0.00 0.00 0.00 77 1025.2
20260901193224 59 0 0.0 0.0 0.00 0.00 0.00 76 1025.2
20260901190256 60 0 0.0 0.0 0.00 0.00 0.00 71 1025.0
20260901190224 60 0 0.0 0.0 0.00 0.00 0.00 71 1025.0
20260901181719 63 0 0.0 0.0 0.00 0.00 0.00 66 1024.2
20260901180218 64 0 0.0 0.0 0.00 0.00 0.00 64 1024.2
20260901174717 64 0 0.0 0.0 0.00 0.00 0.00 67 1024.0
20260901173414 66 0 0.0 0.0 0.00 0.00 0.00 64 1024.0
20260901173250 66 0 0.0 0.0 0.00 0.00 0.00 64 1024.0
20260901173216 66 0 0.0 0.0 0.00 0.00 0.00 64 1024.0
20260901172057 68 0 0.0 0.0 0.00 0.00 0.00 60 1023.9
20260901171716 68 0 0.0 0.0 0.00 0.00 0.00 60 1023.9
20260901170253 70 0 0.0 0.0 0.00 0.00 0.00 56 1024.0
20260901170215 70 0 0.0 0.0 0.00 0.00 0.00 56 1024.0
20260901164714 72 0 0.0 0.0 0.00 0.00 0.00 48 1023.8
20260901163213 73 0 0.0 0.0 0.00 0.00 0.00 48 1023.8
20260901160252 73 0 0.0 0.0 0.00 0.00 0.00 46 1023.8
20260901160212 73 0 0.0 0.0 0.00 0.00 0.00 46 1023.8
20260901154711 74 0 0.0 0.0 0.00 0.00 0.00 44 1023.8
20260901153252 76 0 0.0 0.0 0.00 0.00 0.00 42 1023.7
20260901153210 76 0 0.0 0.0 0.00 0.00 0.00 42 1023.7
20260901151744 77 0 0.0 0.0 0.00 0.00 0.00 40 1023.8
20260901151709 77 0 0.0 0.0 0.00 0.00 0.00 40 1023.8
20260901150209 78 0 0.0 0.0 0.00 0.00 0.00 42 1023.8
20260901144710 80 0 0.0 0.0 0.00 0.00 0.00 40 1023.9
20260901143207 78 0 0.0 0.0 0.00 0.00 0.00 42 1023.9
20260901141749 77 0 0.0 0.0 0.00 0.00 0.00 40 1024.0
20260901141706 77 0 0.0 0.0 0.00 0.00 0.00 40 1024.0
20260901140205 76 0 0.0 0.0 0.00 0.00 0.00 46 1024.1
20260901134753 77 0 0.0 0.0 0.00 0.00 0.00 42 1024.2
20260901134705 77 0 0.0 0.0 0.00 0.00 0.00 42 1024.2
20260901131705 80 0 0.0 0.0 0.00 0.00 0.00 39 1024.2
20260901124703 78 0 0.0 0.0 0.00 0.00 0.00 40 1024.4
20260901123247 75 0 0.0 0.0 0.00 0.00 0.00 45 1024.5
20260901123201 75 0 0.0 0.0 0.00 0.00 0.00 45 1024.5
20260901121701 76 0 0.0 0.0 0.00 0.00 0.00 42 1024.6
20260901120302 78 0 0.0 0.0 0.00 0.00 0.00 42 1024.7
20260901120200 78 0 0.0 0.0 0.00 0.00 0.00 42 1024.7
20260901114938 76 0 0.0 0.0 0.00 0.00 0.00 44 1024.8
20260901114658 76 0 0.0 0.0 0.00 0.00 0.00 44 1024.8
20260901113158 74 0 0.0 0.0 0.00 0.00 0.00 48 1024.8
20260901112453 74 0 0.0 0.0 0.00 0.00 0.00 46 1024.8
20260901111658 74 0 0.0 0.0 0.00 0.00 0.00 46 1024.8
20260901110250 74 0 0.0 0.0 0.00 0.00 0.00 50 1024.9
20260901110157 74 0 0.0 0.0 0.00 0.00 0.00 50 1024.9
20260901105116 73 0 0.0 0.0 0.00 0.00 0.00 50 1025.0
20260901104656 73 0 0.0 0.0 0.00 0.00 0.00 50 1025.0
20260901100155 74 0 0.0 0.0 0.00 0.00 0.00 48 1025.0
20260901094653 75 0 0.0 0.0 0.00 0.00 0.00 50 1024.8
20260901093151 73 0 0.0 0.0 0.00 0.00 0.00 50 1024.8
20260901091651 74 0 0.0 0.0 0.00 0.00 0.00 50 1024.9
20260901090151 74 0 0.0 0.0 0.00 0.00 0.00 52 1025.0
20260901084650 73 0 0.0 0.0 0.00 0.00 0.00 52 1025.2
20260901083245 70 0 0.0 0.0 0.00 0.00 0.00 56 1025.2
20260901083148 70 0 0.0 0.0 0.00 0.00 0.00 56 1025.2
20260901081652 70 0 0.0 0.0 0.00 0.00 0.00 58 1025.2
20260901080147 70 0 0.0 0.0 0.00 0.00 0.00 61 1025.0
20260901074647 67 0 0.0 0.0 0.00 0.00 0.00 65 1024.8
20260901073145 66 0 0.0 0.0 0.00 0.00 0.00 66 1024.8
20260901071647 66 0 0.0 0.0 0.00 0.00 0.00 68 1024.9
20260901070143 66 0 0.0 0.0 0.00 0.00 0.00 68 1024.8
20260901064645 65 0 0.0 0.0 0.00 0.00 0.00 73 1024.8
20260901063252 64 0 0.0 0.0 0.00 0.00 0.00 73 1024.6